createdAt,value
2023-01-23T00:01:09.376Z,0.93
2023-01-23T00:03:37.033Z,0.95
2023-01-23T00:06:10.266Z,0.94
2023-01-23T00:08:37.225Z,0.97
2023-01-23T00:11:08.265Z,0.99
2023-01-23T00:13:35.294Z,1.02
2023-01-23T00:16:11.315Z,1.09
2023-01-23T00:18:38.616Z,1.05
2023-01-23T00:21:06.687Z,1.10
2023-01-23T00:23:34.063Z,1.15
2023-01-23T00:26:08.996Z,1.15
2023-01-23T00:28:35.537Z,1.15
2023-01-23T00:31:06.543Z,1.19
2023-01-23T00:33:33.286Z,1.17
2023-01-23T00:36:02.420Z,1.19
2023-01-23T00:38:28.936Z,1.14
2023-01-23T00:40:56.393Z,1.14
2023-01-23T00:43:24.304Z,1.14
2023-01-23T00:45:51.557Z,1.16
2023-01-23T00:48:18.076Z,1.17
2023-01-23T00:50:44.555Z,1.16
2023-01-23T00:55:45.122Z,1.20
2023-01-23T00:58:11.889Z,1.13
2023-01-23T01:00:39.323Z,1.06
2023-01-23T01:03:06.764Z,1.16
2023-01-23T01:05:33.922Z,1.13
2023-01-23T01:08:00.387Z,1.15
2023-01-23T01:10:29.326Z,1.21
2023-01-23T01:12:57.018Z,1.15
2023-01-23T01:15:23.793Z,1.16
2023-01-23T01:17:56.231Z,1.10
2023-01-23T01:20:23.871Z,1.13
2023-01-23T01:22:50.895Z,1.09
2023-01-23T01:25:17.822Z,1.09
2023-01-23T01:27:44.435Z,1.00
2023-01-23T01:30:12.049Z,1.06
2023-01-23T01:32:41.097Z,1.00
2023-01-23T01:35:08.991Z,0.97
2023-01-23T01:37:40.447Z,1.05
2023-01-23T01:40:09.425Z,1.02
2023-01-23T01:42:44.305Z,1.03
2023-01-23T01:45:48.276Z,1.02
2023-01-23T01:48:15.397Z,1.02
2023-01-23T01:50:42.381Z,1.05
2023-01-23T01:53:09.780Z,1.06
2023-01-23T01:55:37.464Z,1.13
2023-01-23T01:58:04.010Z,1.13
2023-01-23T02:00:30.876Z,1.10
2023-01-23T02:02:59.497Z,1.03
2023-01-23T02:05:35.275Z,1.02
2023-01-23T02:08:14.714Z,1.00
2023-01-23T02:10:42.195Z,0.98
2023-01-23T02:13:36.054Z,0.99
2023-01-23T02:16:08.863Z,1.02
2023-01-23T02:18:38.518Z,0.97
2023-01-23T02:21:07.696Z,0.93
2023-01-23T02:23:39.681Z,0.93
2023-01-23T02:26:11.225Z,0.97
2023-01-23T02:28:48.939Z,0.93
2023-01-23T02:31:15.792Z,0.93
2023-01-23T02:33:51.536Z,0.86
2023-01-23T02:36:20.707Z,0.96
2023-01-23T02:39:08.913Z,0.95
2023-01-23T02:41:38.508Z,0.88
2023-01-23T02:44:13.992Z,0.85
2023-01-23T02:46:40.852Z,0.83
2023-01-23T02:49:07.498Z,0.84
2023-01-23T02:51:33.968Z,0.82
2023-01-23T02:54:00.732Z,0.85
2023-01-23T02:56:27.186Z,0.80
2023-01-23T02:59:11.838Z,0.81
2023-01-23T03:01:38.448Z,0.84
2023-01-23T03:04:06.435Z,0.85
2023-01-23T03:06:37.918Z,0.88
2023-01-23T03:09:13.304Z,0.82
2023-01-23T03:11:42.439Z,0.88
2023-01-23T03:14:12.383Z,0.88
2023-01-23T03:16:38.948Z,0.90
2023-01-23T03:19:08.856Z,0.88
2023-01-23T03:21:37.465Z,0.93
2023-01-23T03:24:06.212Z,0.91
2023-01-23T03:26:32.726Z,0.93
2023-01-23T03:29:18.432Z,0.95
2023-01-23T03:31:44.946Z,0.99
2023-01-23T03:34:11.482Z,1.01
2023-01-23T03:36:38.935Z,1.11
2023-01-23T03:39:25.511Z,1.15
2023-01-23T03:41:53.448Z,1.18
2023-01-23T03:44:20.899Z,1.20
2023-01-23T03:46:48.964Z,1.19
2023-01-23T03:49:15.835Z,1.15
2023-01-23T03:51:42.591Z,1.19
2023-01-23T03:54:09.040Z,1.18
2023-01-23T03:56:38.527Z,1.18
2023-01-23T03:59:04.924Z,1.18
2023-01-23T04:01:31.358Z,1.19
2023-01-23T04:03:57.842Z,1.20
2023-01-23T04:06:24.257Z,1.19
2023-01-23T04:08:50.875Z,1.14
2023-01-23T04:11:17.366Z,1.17
2023-01-23T04:13:43.862Z,1.11
2023-01-23T04:16:10.302Z,1.12
2023-01-23T04:18:36.756Z,1.15
2023-01-23T04:21:03.235Z,1.09
2023-01-23T04:23:30.082Z,1.15
2023-01-23T04:25:57.112Z,1.16
2023-01-23T04:28:23.680Z,1.12
2023-01-23T04:30:53.432Z,1.06
2023-01-23T04:33:20.530Z,1.08
2023-01-23T04:36:06.747Z,1.12
2023-01-23T04:38:33.696Z,1.21
2023-01-23T04:41:00.479Z,1.18
2023-01-23T04:43:26.968Z,1.21
2023-01-23T04:45:54.449Z,1.30
2023-01-23T04:48:20.937Z,1.22
2023-01-23T04:50:47.910Z,1.23
2023-01-23T04:53:14.661Z,1.25
2023-01-23T04:55:41.150Z,1.27
2023-01-23T04:58:08.005Z,1.37
2023-01-23T05:00:34.459Z,1.38
2023-01-23T05:03:02.514Z,1.29
2023-01-23T05:05:29.039Z,1.32
2023-01-23T05:07:55.412Z,1.31
2023-01-23T05:10:22.268Z,1.18
2023-01-23T05:12:48.842Z,1.16
2023-01-23T05:15:17.355Z,1.22
2023-01-23T05:17:43.977Z,1.25
2023-01-23T05:20:11.403Z,1.28
2023-01-23T05:22:38.027Z,1.28
2023-01-23T05:25:04.765Z,1.26
2023-01-23T05:27:31.283Z,1.31
2023-01-23T05:29:57.701Z,1.37
2023-01-23T05:32:24.131Z,1.37
2023-01-23T05:34:50.582Z,1.37
2023-01-23T05:37:17.156Z,1.33
2023-01-23T05:39:43.798Z,1.30
2023-01-23T05:42:10.216Z,1.29
2023-01-23T05:44:36.663Z,1.28
2023-01-23T05:47:03.322Z,1.29
2023-01-23T05:49:29.719Z,1.33
2023-01-23T05:51:56.167Z,1.27
2023-01-23T05:54:22.577Z,1.33
2023-01-23T05:56:48.997Z,1.31
2023-01-23T05:59:15.468Z,1.33
2023-01-23T06:01:41.975Z,1.24
2023-01-23T06:04:08.439Z,1.28
2023-01-23T06:06:34.924Z,1.33
2023-01-23T06:09:01.365Z,1.31
2023-01-23T06:11:27.728Z,1.35
2023-01-23T06:13:54.124Z,1.28
2023-01-23T06:16:20.733Z,1.19
2023-01-23T06:18:47.269Z,1.25
2023-01-23T06:21:15.189Z,1.25
2023-01-23T06:23:41.653Z,1.28
2023-01-23T06:26:08.310Z,1.27
2023-01-23T06:28:34.766Z,1.28
2023-01-23T06:31:02.803Z,1.31
2023-01-23T06:33:30.547Z,1.27
2023-01-23T06:35:58.902Z,1.30
2023-01-23T06:38:25.515Z,1.31
2023-01-23T06:40:51.947Z,1.32
2023-01-23T06:43:18.410Z,1.34
2023-01-23T06:45:45.860Z,1.32
2023-01-23T06:48:13.118Z,1.33
2023-01-23T06:50:40.907Z,1.31
2023-01-23T06:53:10.354Z,1.31
2023-01-23T06:55:36.851Z,1.28
2023-01-23T06:58:03.290Z,1.24
2023-01-23T07:00:29.682Z,1.22
2023-01-23T07:02:58.869Z,1.26
2023-01-23T07:05:25.429Z,1.31
2023-01-23T07:07:52.212Z,1.26
2023-01-23T07:10:18.897Z,1.23
2023-01-23T07:12:45.433Z,1.27
2023-01-23T07:15:11.878Z,1.30
2023-01-23T07:17:38.331Z,1.33
2023-01-23T07:20:05.172Z,1.30
2023-01-23T07:22:32.093Z,1.31
2023-01-23T07:24:58.676Z,1.26
2023-01-23T07:27:25.070Z,1.27
2023-01-23T07:29:51.524Z,1.28
2023-01-23T07:32:17.981Z,1.36
2023-01-23T07:34:44.350Z,1.27
2023-01-23T07:37:10.846Z,1.29
2023-01-23T07:39:37.290Z,1.26
2023-01-23T07:42:03.859Z,1.20
2023-01-23T07:44:30.394Z,1.19
2023-01-23T07:46:57.379Z,1.17
2023-01-23T07:49:23.831Z,1.24
2023-01-23T07:51:50.245Z,1.22
2023-01-23T07:54:16.691Z,1.25
2023-01-23T07:56:43.104Z,1.31
2023-01-23T07:59:11.855Z,1.33
2023-01-23T08:01:38.259Z,1.32
2023-01-23T08:04:04.849Z,1.31
2023-01-23T08:06:31.381Z,1.31
2023-01-23T08:08:57.794Z,1.26
2023-01-23T08:11:26.406Z,1.26
2023-01-23T08:13:52.821Z,1.21
2023-01-23T08:16:19.368Z,1.20
2023-01-23T08:18:45.814Z,1.24
2023-01-23T08:21:12.377Z,1.26
2023-01-23T08:23:40.921Z,1.27
2023-01-23T08:26:09.120Z,1.28
2023-01-23T08:28:36.198Z,1.25
2023-01-23T08:31:06.808Z,1.28
2023-01-23T08:33:34.903Z,1.34
2023-01-23T08:36:01.334Z,1.32
2023-01-23T08:38:28.062Z,1.32
2023-01-23T08:40:58.300Z,1.33
2023-01-23T08:43:24.967Z,1.38
2023-01-23T08:45:54.480Z,1.38
2023-01-23T08:48:21.963Z,1.37
2023-01-23T08:50:49.469Z,1.40
2023-01-23T08:53:16.592Z,1.43
2023-01-23T08:55:43.213Z,1.44
2023-01-23T08:58:13.125Z,1.38
2023-01-23T09:00:40.423Z,1.42
2023-01-23T09:03:06.966Z,1.42
2023-01-23T09:05:33.441Z,1.40
2023-01-23T09:07:59.973Z,1.41
2023-01-23T09:10:26.737Z,1.38
2023-01-23T09:12:54.577Z,1.37
2023-01-23T09:15:22.513Z,1.46
2023-01-23T09:17:49.879Z,1.48
2023-01-23T09:20:16.994Z,1.44
2023-01-23T09:22:43.532Z,1.46
2023-01-23T09:25:10.846Z,1.45
2023-01-23T09:27:37.242Z,1.47
2023-01-23T09:30:04.730Z,1.48
2023-01-23T09:32:31.189Z,1.51
2023-01-23T09:34:57.791Z,1.56
2023-01-23T09:37:24.183Z,1.53
2023-01-23T09:39:50.587Z,1.58
2023-01-23T09:42:31.534Z,1.64
2023-01-23T09:45:03.624Z,1.64
2023-01-23T09:47:36.464Z,1.60
2023-01-23T09:50:08.180Z,1.61
2023-01-23T09:52:41.597Z,1.69
2023-01-23T09:55:22.135Z,1.76
2023-01-23T09:57:55.032Z,1.73
2023-01-23T10:00:33.627Z,1.81
2023-01-23T10:03:12.273Z,1.76
2023-01-23T10:06:08.994Z,1.78
2023-01-23T10:09:00.192Z,1.93
2023-01-23T10:11:49.267Z,1.98
2023-01-23T10:14:35.888Z,1.97
2023-01-23T10:17:07.117Z,2.02
2023-01-23T10:19:46.745Z,1.99
2023-01-23T10:23:00.704Z,2.00
2023-01-23T10:25:32.721Z,2.06
2023-01-23T10:28:29.838Z,2.02
2023-01-23T10:31:00.975Z,2.07
2023-01-23T10:33:40.393Z,2.13
2023-01-23T10:36:23.850Z,2.15
2023-01-23T10:39:04.523Z,2.07
2023-01-23T10:41:31.560Z,2.06
2023-01-23T10:43:59.430Z,2.03
2023-01-23T10:46:38.025Z,2.05
2023-01-23T10:49:05.039Z,2.12
2023-01-23T10:51:45.880Z,2.15
2023-01-23T10:54:33.851Z,2.22
2023-01-23T10:57:22.150Z,2.23
2023-01-23T10:59:57.060Z,2.19
2023-01-23T11:02:41.789Z,2.19
2023-01-23T11:05:50.323Z,2.27
2023-01-23T11:08:27.434Z,2.32
2023-01-23T11:11:14.493Z,2.31
2023-01-23T11:13:45.711Z,2.35
2023-01-23T11:16:23.357Z,2.27
2023-01-23T11:18:55.122Z,2.31
2023-01-23T11:21:29.444Z,2.31
2023-01-23T11:24:38.977Z,2.38
2023-01-23T11:27:19.420Z,2.37
2023-01-23T11:30:04.345Z,2.42
2023-01-23T11:32:35.346Z,2.38
2023-01-23T11:35:15.409Z,2.36
2023-01-23T11:37:42.329Z,2.35
2023-01-23T11:40:14.963Z,2.37
2023-01-23T11:42:43.039Z,2.40
2023-01-23T11:45:31.274Z,2.50
2023-01-23T11:48:06.820Z,2.49
2023-01-23T11:50:54.447Z,2.48
2023-01-23T11:53:41.807Z,2.49
2023-01-23T11:56:12.041Z,2.46
2023-01-23T11:58:53.643Z,2.42
2023-01-23T12:01:31.295Z,2.32
2023-01-23T12:04:16.169Z,2.35
2023-01-23T12:06:51.811Z,2.35
2023-01-23T12:09:20.236Z,2.30
2023-01-23T12:12:23.748Z,2.34
2023-01-23T12:15:19.720Z,2.27
2023-01-23T12:18:22.233Z,2.29
2023-01-23T12:21:09.970Z,2.37
2023-01-23T12:23:45.505Z,2.32
2023-01-23T12:26:24.974Z,2.36
2023-01-23T12:29:09.812Z,2.41
2023-01-23T12:31:42.875Z,2.46
2023-01-23T12:34:35.658Z,2.43
2023-01-23T12:37:32.315Z,2.48
2023-01-23T12:40:22.417Z,2.42
2023-01-23T12:43:14.488Z,2.49
2023-01-23T12:45:58.049Z,2.49
2023-01-23T12:48:39.486Z,2.49
2023-01-23T12:51:14.772Z,2.49
2023-01-23T12:56:38.478Z,2.50
2023-01-23T12:59:17.720Z,2.50
2023-01-23T13:01:55.549Z,2.59
2023-01-23T13:04:31.076Z,2.57
2023-01-23T13:07:00.390Z,2.58
2023-01-23T13:09:48.656Z,2.57
2023-01-23T13:12:25.956Z,2.56
2023-01-23T13:15:14.459Z,2.57
2023-01-23T13:17:44.089Z,2.53
2023-01-23T13:20:44.507Z,2.50
2023-01-23T13:23:31.656Z,2.46
2023-01-23T13:26:16.442Z,2.50
2023-01-23T13:28:46.471Z,2.46
2023-01-23T13:31:34.851Z,2.44
2023-01-23T13:34:15.367Z,2.47
2023-01-23T13:36:46.469Z,2.46
2023-01-23T13:39:29.960Z,2.45
2023-01-23T13:42:14.720Z,2.42
2023-01-23T13:45:26.770Z,2.33
2023-01-23T14:21:49.584Z,2.45
2023-01-23T14:24:56.722Z,2.42
2023-01-23T14:27:36.836Z,2.40
2023-01-23T14:30:19.097Z,2.35
2023-01-23T14:32:46.396Z,2.24
2023-01-23T14:35:27.556Z,2.28
2023-01-23T14:37:57.839Z,2.26
2023-01-23T14:40:28.118Z,2.27
2023-01-23T14:43:01.203Z,2.26
2023-01-23T14:45:33.195Z,2.26
2023-01-23T14:48:05.906Z,2.30
2023-01-23T14:50:32.916Z,2.32
2023-01-23T14:53:11.978Z,2.27
2023-01-23T14:55:41.786Z,2.28
2023-01-23T14:58:18.137Z,2.39
2023-01-23T15:00:45.979Z,2.30
2023-01-23T15:03:13.092Z,2.28
2023-01-23T15:05:41.655Z,2.25
2023-01-23T15:08:30.629Z,2.24
2023-01-23T15:11:00.476Z,2.25
2023-01-23T15:13:36.757Z,2.20
2023-01-23T15:16:07.009Z,2.15
2023-01-23T15:18:35.904Z,2.14
2023-01-23T15:21:08.082Z,2.14
2023-01-23T15:23:39.640Z,2.21
2023-01-23T15:26:10.794Z,2.15
2023-01-23T15:29:01.865Z,2.13
2023-01-23T15:31:31.823Z,2.20
2023-01-23T15:34:16.682Z,2.14
2023-01-23T15:36:47.670Z,2.14
2023-01-23T15:39:20.015Z,2.11
2023-01-23T15:41:52.837Z,2.07
2023-01-23T15:44:21.280Z,2.05
2023-01-23T15:46:48.051Z,2.10
2023-01-23T15:49:24.773Z,2.09
2023-01-23T15:51:51.955Z,2.10
2023-01-23T15:54:26.561Z,2.08
2023-01-23T15:57:00.509Z,2.07
2023-01-23T15:59:34.322Z,2.12
2023-01-23T16:02:00.939Z,2.13
2023-01-23T16:04:27.511Z,2.14
2023-01-23T16:06:53.965Z,2.09
2023-01-23T16:09:30.494Z,2.11
2023-01-23T16:12:00.475Z,2.13
2023-01-23T16:14:27.189Z,2.11
2023-01-23T16:16:54.427Z,2.09
2023-01-23T16:19:21.193Z,2.00
2023-01-23T16:22:03.186Z,1.94
2023-01-23T16:24:36.895Z,1.98
2023-01-23T16:27:03.875Z,1.97
2023-01-23T16:29:33.501Z,2.01
2023-01-23T16:32:02.150Z,2.00
2023-01-23T16:34:30.016Z,2.01
2023-01-23T16:36:58.633Z,2.01
2023-01-23T16:39:32.106Z,2.00
2023-01-23T16:41:59.804Z,2.01
2023-01-23T16:44:26.892Z,1.95
2023-01-23T16:46:53.914Z,1.98
2023-01-23T16:49:20.985Z,2.00
2023-01-23T16:51:59.005Z,1.98
2023-01-23T16:54:26.304Z,2.01
2023-01-23T16:56:54.411Z,2.01
2023-01-23T16:59:41.338Z,1.99
2023-01-23T17:02:25.348Z,1.96
2023-01-23T17:04:51.766Z,1.96
2023-01-23T17:07:20.361Z,1.97
2023-01-23T17:09:47.639Z,1.93
2023-01-23T17:12:21.002Z,2.00
2023-01-23T17:14:48.925Z,1.96
2023-01-23T17:17:30.179Z,1.90
2023-01-23T17:19:57.528Z,1.91
2023-01-23T17:22:30.529Z,1.89
2023-01-23T17:24:57.420Z,1.91
2023-01-23T17:27:24.281Z,1.91
2023-01-23T17:29:50.702Z,1.90
2023-01-23T17:32:32.983Z,1.90
2023-01-23T17:35:03.165Z,1.91
2023-01-23T17:37:30.559Z,1.88
2023-01-23T17:39:57.063Z,1.87
2023-01-23T17:42:23.516Z,1.85
2023-01-23T17:44:50.532Z,1.84
2023-01-23T17:47:17.433Z,1.87
2023-01-23T17:49:49.619Z,1.83
2023-01-23T17:52:16.093Z,1.84
2023-01-23T17:54:42.550Z,1.90
2023-01-23T17:57:08.971Z,1.87
2023-01-23T17:59:35.333Z,1.89
2023-01-23T18:02:01.873Z,1.90
2023-01-23T18:04:28.361Z,1.89
2023-01-23T18:06:54.810Z,1.93
2023-01-23T18:09:21.286Z,1.95
2023-01-23T18:11:52.269Z,1.98
2023-01-23T18:14:39.313Z,1.96
2023-01-23T18:17:22.738Z,1.95
2023-01-23T18:19:51.589Z,1.99
2023-01-23T18:22:18.316Z,1.98
2023-01-23T18:24:45.118Z,1.99
2023-01-23T18:27:17.414Z,1.95
2023-01-23T18:30:27.904Z,1.96
2023-01-23T18:33:06.826Z,1.94
2023-01-23T18:35:54.975Z,1.96
2023-01-23T18:38:28.338Z,1.88
2023-01-23T18:41:21.260Z,1.89
2023-01-23T18:43:54.089Z,1.87
2023-01-23T18:46:23.897Z,1.86
2023-01-23T18:48:50.593Z,1.89
2023-01-23T18:51:45.554Z,1.91
2023-01-23T18:54:51.735Z,1.90
2023-01-23T18:57:36.580Z,1.85
2023-01-23T19:00:34.304Z,1.88
2023-01-23T19:03:14.468Z,1.77
2023-01-23T19:05:41.811Z,1.75
2023-01-23T19:08:35.345Z,1.76
2023-01-23T19:11:06.867Z,1.79
2023-01-23T19:14:00.518Z,1.87
2023-01-23T19:16:32.746Z,1.88
2023-01-23T19:19:16.454Z,1.83
2023-01-23T19:21:46.256Z,1.75
2023-01-23T19:24:15.234Z,1.76
2023-01-23T19:26:41.999Z,1.70
2023-01-23T19:29:21.069Z,1.71
2023-01-23T19:32:03.504Z,1.69
2023-01-23T19:34:30.423Z,1.66
2023-01-23T19:36:56.799Z,1.68
2023-01-23T19:39:23.178Z,1.65
2023-01-23T19:41:49.704Z,1.60
2023-01-23T19:44:18.550Z,1.60
2023-01-23T19:46:46.012Z,1.59
2023-01-23T19:49:13.629Z,1.63
2023-01-23T19:51:40.913Z,1.64
2023-01-23T19:54:12.498Z,1.66
2023-01-23T19:56:39.597Z,1.63
2023-01-23T19:59:06.912Z,1.62
2023-01-23T20:01:37.013Z,1.56
2023-01-23T20:04:05.209Z,1.64
2023-01-23T20:06:33.139Z,1.65
2023-01-23T20:09:00.509Z,1.67
2023-01-23T20:11:26.922Z,1.65
2023-01-23T20:13:54.975Z,1.63
2023-01-23T20:16:26.717Z,1.61
2023-01-23T20:18:54.215Z,1.59
2023-01-23T20:21:23.895Z,1.59
2023-01-23T20:23:51.120Z,1.60
2023-01-23T20:26:19.476Z,1.62
2023-01-23T20:28:53.638Z,1.64
2023-01-23T20:31:21.012Z,1.61
2023-01-23T20:33:48.791Z,1.62
2023-01-23T20:36:15.981Z,1.64
2023-01-23T20:38:43.090Z,1.67
2023-01-23T20:41:18.900Z,1.73
2023-01-23T20:43:45.669Z,1.70
2023-01-23T20:46:14.090Z,1.71
2023-01-23T20:48:44.211Z,1.71
2023-01-23T20:51:11.856Z,1.69
2023-01-23T20:53:39.957Z,1.72
2023-01-23T20:56:15.832Z,1.74
2023-01-23T20:59:02.878Z,1.77
2023-01-23T21:01:51.786Z,1.78
2023-01-23T21:04:18.412Z,1.83
2023-01-23T21:06:44.780Z,1.77
2023-01-23T21:09:11.252Z,1.78
2023-01-23T21:11:37.646Z,1.76
2023-01-23T21:14:04.174Z,1.75
2023-01-23T21:16:32.197Z,1.74
2023-01-23T21:18:58.600Z,1.69
2023-01-23T21:21:25.001Z,1.73
2023-01-23T21:23:51.592Z,1.66
2023-01-23T21:26:20.550Z,1.67
2023-01-23T21:28:48.951Z,1.66
2023-01-23T21:31:21.836Z,1.68
2023-01-23T21:33:48.674Z,1.68
2023-01-23T21:36:20.999Z,1.68
2023-01-23T21:38:48.230Z,1.67
2023-01-23T21:41:14.726Z,1.65
2023-01-23T21:43:41.217Z,1.73
2023-01-23T21:46:07.963Z,1.69
2023-01-23T21:48:34.880Z,1.66
2023-01-23T21:51:08.760Z,1.69
2023-01-23T21:53:40.143Z,1.70
2023-01-23T21:56:08.161Z,1.67
2023-01-23T21:58:34.976Z,1.62
2023-01-23T22:01:23.540Z,1.66
2023-01-23T22:03:50.395Z,1.68
2023-01-23T22:06:16.934Z,1.66
2023-01-23T22:08:43.558Z,1.72
2023-01-23T22:11:11.032Z,1.73
2023-01-23T22:13:37.894Z,1.75
2023-01-23T22:16:05.105Z,1.77
2023-01-23T22:18:32.677Z,1.80
2023-01-23T22:21:02.223Z,1.80
2023-01-23T22:23:29.140Z,1.75
2023-01-23T22:25:57.631Z,1.73
2023-01-23T22:28:24.088Z,1.71
2023-01-23T22:30:50.740Z,1.73
2023-01-23T22:33:18.063Z,1.71
2023-01-23T22:35:44.664Z,1.73
2023-01-23T22:38:12.520Z,1.79
2023-01-23T22:40:41.966Z,1.78
2023-01-23T22:43:09.518Z,1.76
2023-01-23T22:45:36.822Z,1.75
2023-01-23T22:48:03.471Z,1.75
2023-01-23T22:50:29.895Z,1.74
2023-01-23T22:52:56.261Z,1.75
2023-01-23T22:55:23.291Z,1.69
2023-01-23T22:57:52.110Z,1.67
2023-01-23T23:00:18.791Z,1.65
2023-01-23T23:02:45.205Z,1.65
2023-01-23T23:05:11.614Z,1.67
2023-01-23T23:07:38.273Z,1.73
2023-01-23T23:10:07.302Z,1.67
2023-01-23T23:12:34.141Z,1.66
2023-01-23T23:15:00.521Z,1.70
2023-01-23T23:17:29.873Z,1.77
2023-01-23T23:19:56.387Z,1.82
2023-01-23T23:22:22.800Z,1.80
2023-01-23T23:24:49.196Z,1.75
2023-01-23T23:27:15.589Z,1.78
2023-01-23T23:29:41.993Z,1.77
2023-01-23T23:32:08.724Z,1.75
2023-01-23T23:34:36.287Z,1.75
2023-01-23T23:37:03.866Z,1.70
2023-01-23T23:39:30.294Z,1.73
2023-01-23T23:41:56.723Z,1.65
2023-01-23T23:44:23.142Z,1.69
2023-01-23T23:46:49.579Z,1.67
2023-01-23T23:49:15.985Z,1.66
2023-01-23T23:51:42.381Z,1.64
2023-01-23T23:54:08.785Z,1.67
2023-01-23T23:56:35.236Z,1.64
2023-01-23T23:59:02.307Z,1.66
